Observations for PANTELLERIA IT-AFB, Italy (LICG)

LICG 180650Z 33006KT 9999 FEW005 SCT010 21/20 Q1015 
LICG 180550Z 34009KT 9999 SCT004 BKN010 20/20 Q1015 
LICG 180450Z 34006KT 9999 SCT005 BKN010 20/20 Q1015 
LICG 171750Z 03005KT CAVOK 21/19 Q1013  
LICG 171650Z 36008KT CAVOK 22/19 Q1013  
LICG 171550Z 33008KT 9999 FEW010 22/20 Q1014
LICG 171525Z 34008KT 9999 FEW008 22/20 Q1014
LICG 171450Z 32009KT 9000 BKN005 22/20 Q1014
LICG 171405Z 32008KT 9000 BKN005 22/20 Q1015
LICG 171350Z 32007KT 9000 SCT005 SCT010 23/20 Q1015 
LICG 171250Z 32008KT 8000 FEW003 SCT012 22/20 Q1015 
LICG 171150Z 30011KT 8000 SCT006 23/20 Q1015
LICG 171050Z 32011KT 8000 SCT007 23/20 Q1015
LICG 170950Z 32010KT 5000 BR SCT007 23/20 Q1015 
LICG 170850Z 32008KT 5000 BR SCT004 BKN015 22/20 Q1015  
LICG 170813Z 32012KT 290V360 5000 1200W BR BKN003 21/21 Q1015
LICG 170750Z 33008KT 0800 FG OVC001 21/21 Q1014 
LICG 170650Z 33008KT 0200 FG OVC001 20/20 Q1014